createdAt,value
2022-07-30T00:00:12.786Z,49.86
2022-07-30T00:02:51.545Z,49.95
2022-07-30T00:05:18.034Z,50.10
2022-07-30T00:07:44.471Z,50.32
2022-07-30T00:10:10.988Z,50.24
2022-07-30T00:12:37.440Z,50.41
2022-07-30T00:15:04.257Z,50.34
2022-07-30T00:17:30.746Z,50.39
2022-07-30T00:19:58.448Z,49.97
2022-07-30T00:22:25.764Z,50.45
2022-07-30T00:24:52.262Z,50.87
2022-07-30T00:27:19.293Z,50.67
2022-07-30T00:29:45.848Z,50.77
2022-07-30T00:32:12.286Z,50.86
2022-07-30T00:34:38.833Z,50.80
2022-07-30T00:37:06.055Z,51.13
2022-07-30T00:39:32.585Z,51.50
2022-07-30T00:42:01.051Z,51.41
2022-07-30T00:44:28.854Z,51.67
2022-07-30T00:46:56.365Z,51.69
2022-07-30T00:49:23.188Z,51.86
2022-07-30T00:51:50.129Z,52.07
2022-07-30T00:54:16.668Z,52.10
2022-07-30T00:56:43.771Z,52.20
2022-07-30T00:59:10.412Z,52.15
2022-07-30T01:01:37.110Z,52.49
2022-07-30T01:04:03.769Z,52.49
2022-07-30T01:06:30.411Z,52.55
2022-07-30T01:08:57.266Z,52.73
2022-07-30T01:11:31.789Z,52.36
2022-07-30T01:13:58.722Z,52.88
2022-07-30T01:16:25.590Z,53.15
2022-07-30T01:19:12.429Z,53.25
2022-07-30T01:21:43.912Z,52.75
2022-07-30T01:24:30.565Z,52.57
2022-07-30T01:26:58.089Z,52.94
2022-07-30T01:29:27.318Z,53.60
2022-07-30T01:31:59.942Z,53.49
2022-07-30T01:34:29.903Z,53.64
2022-07-30T01:36:59.497Z,53.78
2022-07-30T01:39:26.961Z,54.27
2022-07-30T01:41:55.627Z,54.01
2022-07-30T01:44:25.807Z,53.94
2022-07-30T01:46:54.475Z,54.31
2022-07-30T01:49:24.058Z,54.36
2022-07-30T01:51:51.969Z,54.51
2022-07-30T01:54:21.802Z,54.49
2022-07-30T01:56:51.251Z,54.71
2022-07-30T01:59:20.772Z,54.60
2022-07-30T02:01:48.022Z,55.04
2022-07-30T02:04:14.979Z,55.27
2022-07-30T02:06:47.431Z,54.97
2022-07-30T02:09:18.732Z,55.12
2022-07-30T02:12:05.724Z,55.07
2022-07-30T02:14:52.431Z,54.92
2022-07-30T02:17:30.208Z,54.96
2022-07-30T02:20:01.286Z,55.46
2022-07-30T02:22:33.299Z,55.58
2022-07-30T02:25:01.590Z,55.49
2022-07-30T02:27:32.114Z,55.37
2022-07-30T02:30:01.448Z,55.43
2022-07-30T02:32:33.095Z,55.54
2022-07-30T02:35:05.266Z,55.69
2022-07-30T02:37:41.063Z,55.74
2022-07-30T02:40:15.621Z,55.62
2022-07-30T02:42:45.146Z,55.99
2022-07-30T02:45:13.069Z,56.00
2022-07-30T02:47:42.898Z,56.11
2022-07-30T02:50:10.981Z,56.41
2022-07-30T02:52:39.085Z,56.30
2022-07-30T02:55:07.995Z,56.47
2022-07-30T02:57:35.966Z,56.60
2022-07-30T03:00:10.969Z,56.35
2022-07-30T03:02:39.389Z,56.31
2022-07-30T03:05:07.881Z,56.61
2022-07-30T03:07:35.854Z,56.16
2022-07-30T03:10:03.480Z,56.81
2022-07-30T03:12:32.940Z,57.04
2022-07-30T03:14:59.475Z,57.08
2022-07-30T03:17:28.093Z,57.08
2022-07-30T03:19:55.894Z,57.00
2022-07-30T03:22:29.974Z,56.72
2022-07-30T03:24:59.248Z,57.13
2022-07-30T03:27:26.328Z,57.19
2022-07-30T03:29:55.071Z,57.00
2022-07-30T03:32:26.256Z,56.95
2022-07-30T03:34:54.180Z,57.48
2022-07-30T03:37:21.442Z,57.16
2022-07-30T03:39:48.538Z,57.16
2022-07-30T03:42:15.942Z,57.40
2022-07-30T03:44:45.733Z,57.61
2022-07-30T03:47:13.821Z,57.63
2022-07-30T03:49:40.663Z,57.82
2022-07-30T03:52:07.590Z,57.54
2022-07-30T03:54:35.211Z,57.79
2022-07-30T03:57:03.466Z,58.27
2022-07-30T03:59:30.670Z,58.20
2022-07-30T04:02:06.829Z,57.57
2022-07-30T04:04:34.023Z,58.20
2022-07-30T04:07:00.795Z,58.24
2022-07-30T04:09:27.552Z,58.23
2022-07-30T04:11:54.090Z,58.11
2022-07-30T04:14:20.514Z,58.20
2022-07-30T04:16:51.872Z,57.79
2022-07-30T04:19:23.201Z,58.04
2022-07-30T04:21:52.440Z,58.38
2022-07-30T04:24:20.251Z,58.21
2022-07-30T04:26:48.074Z,58.22
2022-07-30T04:29:18.220Z,58.20
2022-07-30T04:31:46.896Z,58.50
2022-07-30T04:34:15.186Z,58.26
2022-07-30T04:36:43.025Z,58.41
2022-07-30T04:39:10.140Z,58.26
2022-07-30T04:41:49.034Z,58.58
2022-07-30T04:44:17.864Z,58.60
2022-07-30T04:46:44.480Z,58.91
2022-07-30T04:49:12.753Z,58.81
2022-07-30T04:51:40.653Z,58.88
2022-07-30T04:54:15.548Z,58.95
2022-07-30T04:56:52.464Z,59.46
2022-07-30T04:59:23.655Z,59.60
2022-07-30T05:01:51.164Z,59.47
2022-07-30T05:04:19.366Z,59.57
2022-07-30T05:06:46.502Z,59.57
2022-07-30T05:09:16.143Z,59.77
2022-07-30T05:11:42.787Z,60.19
2022-07-30T05:14:09.253Z,60.11
2022-07-30T05:16:35.848Z,60.01
2022-07-30T05:19:02.309Z,60.19
2022-07-30T05:21:34.950Z,60.14
2022-07-30T05:24:01.402Z,60.48
2022-07-30T05:26:28.116Z,59.96
2022-07-30T05:28:56.605Z,60.56
2022-07-30T05:31:23.866Z,60.18
2022-07-30T05:33:52.346Z,60.09
2022-07-30T05:36:20.095Z,60.09
2022-07-30T05:38:47.173Z,60.32
2022-07-30T05:41:31.969Z,60.20
2022-07-30T05:43:59.675Z,59.76
2022-07-30T05:46:26.386Z,59.68
2022-07-30T05:48:53.071Z,59.66
2022-07-30T05:51:20.830Z,59.73
2022-07-30T05:53:47.611Z,59.93
2022-07-30T05:56:14.039Z,60.13
2022-07-30T05:58:40.632Z,60.02
2022-07-30T06:01:07.277Z,59.93
2022-07-30T06:03:34.842Z,59.65
2022-07-30T06:06:04.581Z,59.31
2022-07-30T06:08:31.716Z,59.50
2022-07-30T06:10:58.170Z,59.38
2022-07-30T06:13:24.958Z,59.23
2022-07-30T06:15:51.593Z,59.37
2022-07-30T06:18:18.102Z,58.81
2022-07-30T06:20:44.876Z,58.89
2022-07-30T06:23:11.439Z,58.72
2022-07-30T06:25:39.902Z,58.72
2022-07-30T06:28:27.424Z,59.04
2022-07-30T06:30:53.355Z,58.34
2022-07-30T06:33:19.908Z,58.42
2022-07-30T06:35:46.365Z,58.49
2022-07-30T06:38:12.827Z,58.26
2022-07-30T06:40:39.928Z,58.08
2022-07-30T06:43:06.363Z,58.10
2022-07-30T06:45:32.835Z,58.24
2022-07-30T06:47:59.834Z,58.09
2022-07-30T06:50:26.710Z,57.79
2022-07-30T06:52:53.418Z,57.70
2022-07-30T06:55:19.891Z,57.62
2022-07-30T06:57:46.363Z,57.46
2022-07-30T07:00:13.538Z,56.84
2022-07-30T07:02:39.979Z,56.52
2022-07-30T07:05:07.480Z,56.48
2022-07-30T07:07:42.289Z,56.40
2022-07-30T07:10:11.373Z,56.00
2022-07-30T07:12:37.927Z,55.63
2022-07-30T07:15:05.447Z,55.51
2022-07-30T07:17:32.048Z,55.20
2022-07-30T07:20:01.720Z,54.92
2022-07-30T07:22:28.700Z,54.78
2022-07-30T07:24:55.222Z,54.58
2022-07-30T07:27:21.756Z,54.14
2022-07-30T07:30:04.910Z,54.08
2022-07-30T07:32:32.654Z,54.18
2022-07-30T07:34:59.150Z,53.71
2022-07-30T07:37:25.609Z,53.66
2022-07-30T07:39:52.027Z,53.28
2022-07-30T07:42:18.498Z,53.10
2022-07-30T07:44:44.934Z,53.53
2022-07-30T07:47:11.363Z,52.97
2022-07-30T07:49:37.816Z,52.90
2022-07-30T07:52:04.526Z,52.56
2022-07-30T07:54:30.944Z,52.74
2022-07-30T07:56:57.482Z,52.18
2022-07-30T07:59:27.748Z,51.99
2022-07-30T08:02:06.414Z,51.72
2022-07-30T08:04:34.524Z,51.76
2022-07-30T08:07:01.247Z,51.67
2022-07-30T08:09:27.939Z,51.18
2022-07-30T08:12:10.958Z,51.01
2022-07-30T08:14:37.864Z,50.65
2022-07-30T08:17:04.511Z,50.74
2022-07-30T08:19:31.305Z,51.18
2022-07-30T08:21:59.734Z,50.50
2022-07-30T08:24:26.870Z,50.60
2022-07-30T08:26:53.728Z,49.87
2022-07-30T08:29:20.257Z,49.93
2022-07-30T08:31:46.695Z,49.58
2022-07-30T08:34:13.753Z,49.74
2022-07-30T08:36:40.821Z,49.64
2022-07-30T08:39:07.430Z,48.79
2022-07-30T08:41:36.204Z,48.29
2022-07-30T08:44:03.094Z,48.72
2022-07-30T08:46:32.155Z,48.34
2022-07-30T08:49:00.548Z,47.75
2022-07-30T08:51:37.706Z,48.01
2022-07-30T08:54:04.835Z,47.76
2022-07-30T08:56:32.636Z,47.36
2022-07-30T08:59:00.651Z,46.54
2022-07-30T09:01:27.383Z,46.17
2022-07-30T09:03:53.937Z,46.07
2022-07-30T09:06:20.455Z,46.16
2022-07-30T09:08:46.883Z,45.64
2022-07-30T09:11:14.027Z,46.49
2022-07-30T09:13:43.014Z,45.74
2022-07-30T09:16:20.203Z,45.91
2022-07-30T09:18:47.070Z,44.85
2022-07-30T09:21:16.906Z,45.48
2022-07-30T09:24:00.932Z,44.95
2022-07-30T09:26:28.235Z,44.33
2022-07-30T09:28:54.900Z,44.46
2022-07-30T09:31:22.415Z,44.41
2022-07-30T09:33:48.999Z,43.65
2022-07-30T09:36:17.798Z,43.29
2022-07-30T09:38:47.932Z,43.88
2022-07-30T09:41:37.562Z,43.26
2022-07-30T09:44:04.841Z,43.73
2022-07-30T09:46:47.443Z,43.32
2022-07-30T09:49:16.396Z,42.78
2022-07-30T09:51:55.787Z,42.40
2022-07-30T09:54:24.294Z,42.70
2022-07-30T09:57:26.207Z,42.86
2022-07-30T09:59:55.099Z,42.19
2022-07-30T10:02:29.248Z,42.28
2022-07-30T10:05:14.116Z,42.17
2022-07-30T10:07:49.586Z,42.39
2022-07-30T10:10:25.533Z,41.73
2022-07-30T10:12:58.394Z,41.75
2022-07-30T10:15:29.656Z,41.12
2022-07-30T10:17:56.498Z,40.98
2022-07-30T10:20:24.155Z,41.36
2022-07-30T10:22:52.059Z,41.11
2022-07-30T10:25:20.782Z,40.97
2022-07-30T10:27:50.592Z,40.68
2022-07-30T10:30:27.639Z,40.69
2022-07-30T10:32:56.569Z,39.90
2022-07-30T10:35:34.427Z,39.51
2022-07-30T10:38:09.955Z,39.87
2022-07-30T10:40:43.274Z,39.67
2022-07-30T10:43:31.689Z,38.61
2022-07-30T10:46:19.963Z,38.84
2022-07-30T10:48:50.015Z,38.71
2022-07-30T10:51:18.633Z,37.34
2022-07-30T10:53:52.202Z,37.38
2022-07-30T10:56:25.975Z,37.10
2022-07-30T10:59:10.162Z,37.39
2022-07-30T11:01:53.274Z,37.26
2022-07-30T11:04:25.536Z,37.51
2022-07-30T11:07:02.578Z,36.65
2022-07-30T11:09:42.713Z,36.63
2022-07-30T11:12:16.311Z,35.96
2022-07-30T11:14:46.125Z,35.76
2022-07-30T11:17:17.964Z,35.79
2022-07-30T11:20:02.660Z,36.11
2022-07-30T11:22:40.534Z,35.00
2022-07-30T11:25:50.456Z,35.04
2022-07-30T11:28:49.244Z,35.39
2022-07-30T11:31:56.639Z,34.83
2022-07-30T11:34:25.925Z,34.09
2022-07-30T11:37:19.130Z,34.70
2022-07-30T11:39:54.976Z,36.33
2022-07-30T11:42:24.350Z,35.00
2022-07-30T11:44:51.272Z,33.97
2022-07-30T11:47:18.519Z,34.24
2022-07-30T11:49:48.087Z,33.76
2022-07-30T11:52:23.056Z,34.14
2022-07-30T11:54:54.086Z,34.06
2022-07-30T11:57:20.746Z,34.03
2022-07-30T11:59:55.625Z,33.97
2022-07-30T12:02:28.471Z,33.38
2022-07-30T12:04:55.062Z,33.35
2022-07-30T12:07:24.683Z,33.11
2022-07-30T12:09:51.135Z,32.74
2022-07-30T12:12:24.541Z,33.63
2022-07-30T12:14:51.453Z,33.42
2022-07-30T12:17:19.322Z,33.31
2022-07-30T12:19:48.865Z,33.44
2022-07-30T12:22:15.673Z,33.66
2022-07-30T12:24:42.167Z,34.38
2022-07-30T12:27:08.866Z,33.92
2022-07-30T12:29:35.819Z,34.08
2022-07-30T12:32:02.523Z,34.03
2022-07-30T12:34:29.193Z,33.16
2022-07-30T12:37:06.386Z,33.63
2022-07-30T12:39:32.821Z,33.48
2022-07-30T12:41:59.287Z,33.57
2022-07-30T12:44:35.104Z,32.89
2022-07-30T12:47:03.004Z,32.86
2022-07-30T12:49:36.593Z,31.88
2022-07-30T12:52:28.810Z,31.86
2022-07-30T12:55:01.946Z,32.23
2022-07-30T12:57:48.922Z,31.34
2022-07-30T13:00:16.345Z,32.17
2022-07-30T13:02:43.214Z,31.37
2022-07-30T13:05:11.261Z,31.37
2022-07-30T13:07:58.227Z,32.00
2022-07-30T13:10:30.456Z,31.74
2022-07-30T13:12:58.403Z,30.84
2022-07-30T13:15:24.981Z,30.85
2022-07-30T13:17:51.558Z,30.80
2022-07-30T13:20:18.165Z,29.99
2022-07-30T13:22:44.799Z,29.92
2022-07-30T13:25:11.695Z,29.76
2022-07-30T13:27:38.750Z,29.53
2022-07-30T13:30:06.099Z,29.95
2022-07-30T13:32:33.266Z,28.97
2022-07-30T13:35:01.596Z,29.10
2022-07-30T13:37:38.073Z,28.67
2022-07-30T13:40:06.421Z,28.18
2022-07-30T13:42:33.004Z,27.90
2022-07-30T13:44:59.530Z,27.82
2022-07-30T13:47:25.964Z,28.71
2022-07-30T13:49:52.430Z,28.44
2022-07-30T13:52:18.849Z,28.75
2022-07-30T13:54:45.348Z,29.00
2022-07-30T13:57:11.987Z,27.82
2022-07-30T13:59:38.455Z,28.12
2022-07-30T14:02:05.074Z,27.78
2022-07-30T14:04:31.753Z,27.14
2022-07-30T14:06:58.292Z,27.82
2022-07-30T14:09:24.907Z,27.97
2022-07-30T14:11:51.979Z,28.27
2022-07-30T14:14:18.983Z,27.87
2022-07-30T14:16:46.931Z,27.86
2022-07-30T14:19:23.911Z,27.69
2022-07-30T14:21:52.782Z,27.17
2022-07-30T14:24:19.979Z,26.84
2022-07-30T14:26:46.548Z,27.08
2022-07-30T14:29:12.996Z,27.49
2022-07-30T14:31:40.636Z,27.45
2022-07-30T14:34:07.066Z,27.51
2022-07-30T14:36:33.697Z,26.87
2022-07-30T14:39:01.947Z,26.51
2022-07-30T14:41:28.497Z,27.26
2022-07-30T14:43:55.035Z,27.20
2022-07-30T14:46:21.591Z,27.05
2022-07-30T14:48:48.191Z,26.37
2022-07-30T14:51:21.766Z,26.77
2022-07-30T14:53:52.091Z,26.99
2022-07-30T14:56:19.379Z,26.93
2022-07-30T14:58:46.211Z,26.98
2022-07-30T15:01:16.634Z,26.68
2022-07-30T15:03:44.811Z,26.73
2022-07-30T15:06:12.725Z,26.69
2022-07-30T15:08:39.307Z,26.75
2022-07-30T15:11:06.162Z,26.01
2022-07-30T15:13:34.873Z,25.90
2022-07-30T15:16:02.956Z,25.88
2022-07-30T15:18:29.520Z,26.14
2022-07-30T15:20:56.435Z,26.15
2022-07-30T15:23:22.899Z,26.65
2022-07-30T15:25:49.474Z,26.67
2022-07-30T15:28:16.161Z,26.49
2022-07-30T15:30:42.710Z,27.11
2022-07-30T15:33:09.423Z,26.84
2022-07-30T15:35:36.513Z,26.47
2022-07-30T15:38:03.393Z,26.54
2022-07-30T15:40:30.148Z,26.48
2022-07-30T15:42:56.620Z,26.52
2022-07-30T15:45:24.703Z,26.34
2022-07-30T15:47:51.748Z,26.28
2022-07-30T15:50:18.234Z,26.21
2022-07-30T15:52:45.097Z,25.72
2022-07-30T15:55:12.416Z,26.29
2022-07-30T15:57:40.507Z,26.47
2022-07-30T16:00:08.743Z,25.90
2022-07-30T16:02:36.137Z,26.86
2022-07-30T16:05:03.106Z,26.10
2022-07-30T16:07:30.238Z,26.32
2022-07-30T16:09:56.769Z,25.69
2022-07-30T16:12:23.219Z,26.53
2022-07-30T16:14:49.672Z,26.22
2022-07-30T16:17:16.513Z,26.10
2022-07-30T16:19:44.876Z,25.58
2022-07-30T16:22:14.967Z,25.25
2022-07-30T16:24:48.768Z,25.15
2022-07-30T16:27:16.695Z,24.70
2022-07-30T16:29:43.216Z,24.55
2022-07-30T16:32:09.674Z,24.67
2022-07-30T16:34:36.106Z,25.07
2022-07-30T16:37:04.214Z,24.59
2022-07-30T16:39:30.906Z,24.15
2022-07-30T16:41:57.455Z,24.63
2022-07-30T16:44:23.912Z,24.07
2022-07-30T16:46:50.379Z,24.68
2022-07-30T16:49:16.899Z,23.93
2022-07-30T16:51:43.983Z,24.00
2022-07-30T16:54:10.506Z,23.14
2022-07-30T16:56:36.941Z,23.65
2022-07-30T16:59:03.366Z,22.65
2022-07-30T17:01:31.125Z,21.77
2022-07-30T17:03:58.269Z,21.56
2022-07-30T17:06:24.808Z,21.78
2022-07-30T17:08:51.325Z,21.22
2022-07-30T17:11:45.952Z,21.26
2022-07-30T17:14:04.638Z,21.09
2022-07-30T17:16:31.042Z,20.69
2022-07-30T17:18:57.518Z,20.35
2022-07-30T17:21:23.977Z,20.58
2022-07-30T17:23:50.471Z,20.83
2022-07-30T17:26:17.082Z,20.82
2022-07-30T17:28:43.573Z,21.31
2022-07-30T17:31:10.041Z,21.22
2022-07-30T17:33:36.567Z,22.19
2022-07-30T17:36:03.387Z,22.00
2022-07-30T17:38:29.891Z,22.03
2022-07-30T17:40:56.385Z,22.04
2022-07-30T17:43:22.834Z,22.61
2022-07-30T17:45:49.309Z,22.58
2022-07-30T17:48:15.818Z,22.99
2022-07-30T17:50:42.329Z,23.38
2022-07-30T17:53:08.776Z,23.44
2022-07-30T17:55:35.468Z,23.94
2022-07-30T17:58:03.223Z,24.19
2022-07-30T18:00:29.765Z,24.77
2022-07-30T18:02:56.334Z,25.12
2022-07-30T18:05:22.995Z,25.42
2022-07-30T18:07:49.674Z,25.60
2022-07-30T18:10:16.183Z,25.56
2022-07-30T18:12:49.108Z,26.20
2022-07-30T18:15:17.546Z,26.26
2022-07-30T18:17:44.046Z,26.17
2022-07-30T18:20:11.096Z,26.60
2022-07-30T18:22:37.548Z,26.27
2022-07-30T18:25:07.771Z,26.62
2022-07-30T18:27:34.511Z,25.92
2022-07-30T18:30:01.008Z,25.50
2022-07-30T18:32:27.437Z,25.65
2022-07-30T18:34:53.865Z,25.32
2022-07-30T18:37:20.353Z,25.46
2022-07-30T18:39:46.800Z,25.44
2022-07-30T18:42:14.315Z,25.77
2022-07-30T18:44:40.736Z,25.76
2022-07-30T18:47:07.145Z,25.56
2022-07-30T18:49:37.155Z,25.78
2022-07-30T18:52:05.839Z,25.82
2022-07-30T18:54:32.602Z,26.15
2022-07-30T18:56:59.067Z,26.46
2022-07-30T18:59:25.538Z,26.85
2022-07-30T19:01:52.248Z,26.99
2022-07-30T19:04:18.717Z,27.23
2022-07-30T19:06:45.385Z,27.47
2022-07-30T19:09:17.211Z,27.66
2022-07-30T19:11:45.290Z,27.94
2022-07-30T19:14:13.187Z,27.96
2022-07-30T19:16:40.588Z,28.45
2022-07-30T19:19:07.374Z,28.53
2022-07-30T19:21:33.802Z,28.40
2022-07-30T19:24:01.482Z,29.07
2022-07-30T19:26:28.833Z,29.20
2022-07-30T19:28:55.277Z,29.32
2022-07-30T19:31:21.746Z,29.61
2022-07-30T19:33:48.286Z,29.47
2022-07-30T19:36:16.394Z,29.77
2022-07-30T19:38:45.157Z,29.65
2022-07-30T19:41:11.871Z,29.62
2022-07-30T19:43:40.620Z,29.79
2022-07-30T19:46:07.125Z,30.10
2022-07-30T19:48:36.092Z,30.12
2022-07-30T19:51:04.312Z,30.47
2022-07-30T19:53:34.082Z,30.72
2022-07-30T19:56:03.119Z,30.84
2022-07-30T19:58:30.801Z,30.69
2022-07-30T20:00:57.435Z,31.35
2022-07-30T20:03:25.433Z,31.29
2022-07-30T20:05:57.434Z,31.36
2022-07-30T20:08:27.674Z,31.73
2022-07-30T20:10:57.667Z,31.95
2022-07-30T20:13:25.364Z,31.87
2022-07-30T20:16:12.252Z,32.20
2022-07-30T20:18:39.392Z,32.43
2022-07-30T20:21:06.216Z,32.30
2022-07-30T20:23:32.725Z,32.52
2022-07-30T20:25:59.167Z,32.79
2022-07-30T20:28:27.230Z,32.56
2022-07-30T20:30:53.683Z,32.61
2022-07-30T20:33:23.795Z,32.68
2022-07-30T20:36:02.714Z,32.82
2022-07-30T20:38:30.346Z,32.85
2022-07-30T20:40:57.227Z,33.46
2022-07-30T20:43:23.747Z,33.09
2022-07-30T20:45:54.079Z,33.15
2022-07-30T20:48:25.510Z,33.18
2022-07-30T20:50:52.553Z,33.71
2022-07-30T20:53:19.831Z,33.65
2022-07-30T20:55:47.328Z,33.51
2022-07-30T20:58:16.660Z,34.05
2022-07-30T21:00:49.657Z,33.86
2022-07-30T21:03:21.271Z,33.65
2022-07-30T21:05:48.169Z,33.58
2022-07-30T21:08:17.783Z,34.00
2022-07-30T21:10:44.874Z,34.33
2022-07-30T21:13:12.724Z,34.38
2022-07-30T21:15:45.469Z,34.12
2022-07-30T21:18:26.063Z,34.31
2022-07-30T21:20:53.049Z,34.87
2022-07-30T21:23:22.338Z,34.33
2022-07-30T21:26:01.589Z,35.07
2022-07-30T21:28:35.931Z,34.95
2022-07-30T21:31:07.095Z,35.22
2022-07-30T21:33:34.931Z,35.61
2022-07-30T21:36:01.379Z,35.59
2022-07-30T21:38:28.591Z,35.55
2022-07-30T21:40:56.862Z,35.03
2022-07-30T21:43:29.854Z,35.65
2022-07-30T21:45:57.051Z,36.00
2022-07-30T21:48:24.256Z,35.94
2022-07-30T21:50:50.694Z,35.98
2022-07-30T21:53:17.535Z,36.26
2022-07-30T21:55:56.749Z,36.02
2022-07-30T21:58:26.077Z,36.64
2022-07-30T22:00:54.954Z,36.94
2022-07-30T22:04:04.033Z,36.59
2022-07-30T22:06:12.630Z,36.46
2022-07-30T22:08:39.706Z,35.87
2022-07-30T22:11:09.017Z,36.42
2022-07-30T22:13:51.119Z,35.86
2022-07-30T22:16:18.245Z,36.17
2022-07-30T22:18:45.484Z,36.07
2022-07-30T22:21:11.992Z,36.26
2022-07-30T22:23:41.195Z,36.24
2022-07-30T22:26:23.818Z,36.06
2022-07-30T22:28:54.288Z,36.18
2022-07-30T22:31:20.978Z,36.17
2022-07-30T22:33:47.766Z,36.31
2022-07-30T22:36:17.450Z,36.50
2022-07-30T22:38:58.711Z,36.43
2022-07-30T22:41:25.847Z,36.83
2022-07-30T22:43:55.584Z,37.04
2022-07-30T22:46:31.009Z,36.98
2022-07-30T22:49:08.441Z,35.65
2022-07-30T22:52:04.883Z,37.05
2022-07-30T22:54:37.313Z,36.87
2022-07-30T22:57:04.239Z,36.99
2022-07-30T23:00:00.273Z,37.17
2022-07-30T23:02:17.951Z,37.23
2022-07-30T23:04:44.460Z,37.66
2022-07-30T23:07:14.000Z,37.58
2022-07-30T23:09:51.754Z,37.46
2022-07-30T23:12:20.204Z,37.45
2022-07-30T23:14:47.648Z,37.82
2022-07-30T23:17:14.459Z,37.53
2022-07-30T23:19:40.927Z,37.80
2022-07-30T23:22:07.319Z,38.15
2022-07-30T23:24:33.942Z,37.98
2022-07-30T23:27:00.832Z,38.31
2022-07-30T23:29:28.574Z,38.27
2022-07-30T23:31:55.594Z,38.18
2022-07-30T23:34:22.285Z,38.34
2022-07-30T23:36:48.933Z,38.20
2022-07-30T23:39:15.468Z,38.99
2022-07-30T23:41:42.044Z,39.04
2022-07-30T23:44:08.493Z,38.79
2022-07-30T23:46:37.100Z,39.02
2022-07-30T23:49:04.606Z,38.88
2022-07-30T23:51:33.309Z,39.04
2022-07-30T23:54:00.355Z,38.63
2022-07-30T23:56:26.909Z,39.32
2022-07-30T23:58:53.406Z,39.18
